createdAt,value
2022-10-14T00:01:57.017Z,10.95
2022-10-14T00:04:23.475Z,10.99
2022-10-14T00:06:49.871Z,10.96
2022-10-14T00:09:16.292Z,10.92
2022-10-14T00:11:42.832Z,10.88
2022-10-14T00:14:14.361Z,10.88
2022-10-14T00:16:42.943Z,10.83
2022-10-14T00:19:10.687Z,10.85
2022-10-14T00:21:39.255Z,11.03
2022-10-14T00:24:07.297Z,10.93
2022-10-14T00:26:36.722Z,10.96
2022-10-14T00:29:06.109Z,10.96
2022-10-14T00:31:32.710Z,10.96
2022-10-14T00:33:59.948Z,10.88
2022-10-14T00:36:26.883Z,10.86
2022-10-14T00:38:54.831Z,11.04
2022-10-14T00:41:28.005Z,10.95
2022-10-14T00:43:55.776Z,10.91
2022-10-14T00:46:23.314Z,10.84
2022-10-14T00:48:50.589Z,10.90
2022-10-14T00:51:18.268Z,10.93
2022-10-14T00:53:44.887Z,10.94
2022-10-14T00:56:13.020Z,10.90
2022-10-14T00:58:39.704Z,10.87
2022-10-14T01:01:07.878Z,10.88
2022-10-14T01:03:34.691Z,10.91
2022-10-14T01:06:31.714Z,10.90
2022-10-14T01:09:31.463Z,10.91
2022-10-14T01:12:29.946Z,10.97
2022-10-14T01:15:04.824Z,11.09
2022-10-14T01:17:56.296Z,11.04
2022-10-14T01:20:47.046Z,10.97
2022-10-14T01:23:38.279Z,10.90
2022-10-14T01:26:40.510Z,10.97
2022-10-14T01:29:38.052Z,11.00
2022-10-14T01:32:14.686Z,10.92
2022-10-14T01:34:49.682Z,10.87
2022-10-14T01:37:21.364Z,10.97
2022-10-14T01:39:54.302Z,11.01
2022-10-14T01:42:25.391Z,11.12
2022-10-14T01:45:19.112Z,11.01
2022-10-14T01:47:50.235Z,11.14
2022-10-14T01:50:20.249Z,11.15
2022-10-14T01:52:55.761Z,11.28
2022-10-14T01:55:27.483Z,11.35
2022-10-14T01:57:56.504Z,11.21
2022-10-14T02:00:23.132Z,11.20
2022-10-14T02:02:49.782Z,11.15
2022-10-14T02:05:38.616Z,11.12
2022-10-14T02:08:13.899Z,11.14
2022-10-14T02:11:14.423Z,11.05
2022-10-14T02:13:53.360Z,11.05
2022-10-14T02:16:53.412Z,11.24
2022-10-14T02:19:44.046Z,11.17
2022-10-14T02:22:23.003Z,11.20
2022-10-14T02:24:55.167Z,11.04
2022-10-14T02:27:25.404Z,11.12
2022-10-14T02:29:54.287Z,11.11
2022-10-14T02:32:22.899Z,11.21
2022-10-14T02:34:52.775Z,11.33
2022-10-14T02:37:21.189Z,11.32
2022-10-14T02:39:57.343Z,11.41
2022-10-14T02:42:24.013Z,11.31
2022-10-14T02:44:55.697Z,11.43
2022-10-14T02:47:23.016Z,11.47
2022-10-14T02:49:49.612Z,11.26
2022-10-14T02:52:16.062Z,11.35
2022-10-14T02:54:42.482Z,11.30
2022-10-14T02:57:08.902Z,11.37
2022-10-14T02:59:35.315Z,11.48
2022-10-14T03:02:02.024Z,11.54
2022-10-14T03:04:28.489Z,11.31
2022-10-14T03:06:54.916Z,11.40
2022-10-14T03:09:21.359Z,11.61
2022-10-14T03:11:48.072Z,11.67
2022-10-14T03:14:14.520Z,11.70
2022-10-14T03:16:40.904Z,11.68
2022-10-14T03:19:07.400Z,11.45
2022-10-14T03:21:33.775Z,11.42
2022-10-14T03:24:01.551Z,11.29
2022-10-14T03:26:28.994Z,11.76
2022-10-14T03:28:55.496Z,11.83
2022-10-14T03:31:22.091Z,11.67
2022-10-14T03:33:48.529Z,11.65
2022-10-14T03:36:14.971Z,11.65
2022-10-14T03:38:41.468Z,11.53
2022-10-14T03:41:07.920Z,11.45
2022-10-14T03:43:34.420Z,11.64
2022-10-14T03:46:00.911Z,11.58
2022-10-14T03:48:27.315Z,11.56
2022-10-14T03:50:53.743Z,11.43
2022-10-14T03:53:20.249Z,11.42
2022-10-14T03:55:46.884Z,11.50
2022-10-14T03:58:13.305Z,11.39
2022-10-14T04:00:39.950Z,11.29
2022-10-14T04:03:06.387Z,11.20
2022-10-14T04:05:34.808Z,11.16
2022-10-14T04:08:01.475Z,11.39
2022-10-14T04:10:28.156Z,11.24
2022-10-14T04:12:55.138Z,11.33
2022-10-14T04:15:22.911Z,11.19
2022-10-14T04:17:49.393Z,11.33
2022-10-14T04:20:16.836Z,11.26
2022-10-14T04:22:43.307Z,11.44
2022-10-14T04:25:10.277Z,11.32
2022-10-14T04:27:36.714Z,11.31
2022-10-14T04:30:03.804Z,11.36
2022-10-14T04:32:30.510Z,11.29
2022-10-14T04:34:56.894Z,11.35
2022-10-14T04:37:23.364Z,11.57
2022-10-14T04:39:49.782Z,11.46
2022-10-14T04:42:16.196Z,11.39
2022-10-14T04:44:42.682Z,11.45
2022-10-14T04:47:09.148Z,11.54
2022-10-14T04:49:35.547Z,11.41
2022-10-14T04:52:01.949Z,11.35
2022-10-14T04:54:28.494Z,11.52
2022-10-14T04:56:54.927Z,11.35
2022-10-14T04:59:21.387Z,11.24
2022-10-14T05:01:47.879Z,11.22
2022-10-14T05:04:14.720Z,11.11
2022-10-14T05:06:41.267Z,11.02
2022-10-14T05:09:07.692Z,10.99
2022-10-14T05:11:34.420Z,11.02
2022-10-14T05:14:00.961Z,11.05
2022-10-14T05:16:27.610Z,11.18
2022-10-14T05:18:54.087Z,11.13
2022-10-14T05:21:20.552Z,11.02
2022-10-14T05:23:47.031Z,10.95
2022-10-14T05:26:13.421Z,10.89
2022-10-14T05:28:39.919Z,10.92
2022-10-14T05:31:06.608Z,10.95
2022-10-14T05:33:33.211Z,10.86
2022-10-14T05:35:59.939Z,10.93
2022-10-14T05:38:26.711Z,11.02
2022-10-14T05:40:57.726Z,11.03
2022-10-14T05:43:32.199Z,10.93
2022-10-14T05:45:59.676Z,10.83
2022-10-14T05:48:26.211Z,10.77
2022-10-14T05:50:54.073Z,10.76
2022-10-14T05:53:20.509Z,10.75
2022-10-14T05:55:47.025Z,10.81
2022-10-14T05:58:13.443Z,10.94
2022-10-14T06:00:39.870Z,10.87
2022-10-14T06:03:06.345Z,10.89
2022-10-14T06:05:35.449Z,10.82
2022-10-14T06:08:02.079Z,10.80
2022-10-14T06:10:28.531Z,10.79
2022-10-14T06:12:56.542Z,10.82
2022-10-14T06:15:22.951Z,10.84
2022-10-14T06:17:49.351Z,10.91
2022-10-14T06:20:15.848Z,10.81
2022-10-14T06:22:42.320Z,10.85
2022-10-14T06:25:09.017Z,10.86
2022-10-14T06:27:35.479Z,10.86
2022-10-14T06:30:01.875Z,10.88
2022-10-14T06:32:28.271Z,10.99
2022-10-14T06:34:54.749Z,10.92
2022-10-14T06:37:21.219Z,11.01
2022-10-14T06:39:47.778Z,11.00
2022-10-14T06:42:14.224Z,10.96
2022-10-14T06:44:40.679Z,11.05
2022-10-14T06:47:08.131Z,11.20
2022-10-14T06:49:35.227Z,11.23
2022-10-14T06:52:02.069Z,11.20
2022-10-14T06:54:28.608Z,11.18
2022-10-14T06:56:55.075Z,11.27
2022-10-14T06:59:21.549Z,11.35
2022-10-14T07:01:48.143Z,11.33
2022-10-14T07:04:14.636Z,11.23
2022-10-14T07:06:41.735Z,11.28
2022-10-14T07:09:08.230Z,11.22
2022-10-14T07:11:35.172Z,11.26
2022-10-14T07:14:01.555Z,11.35
2022-10-14T07:16:28.623Z,11.37
2022-10-14T07:18:55.193Z,11.42
2022-10-14T07:21:21.628Z,11.55
2022-10-14T07:23:48.026Z,11.65
2022-10-14T07:26:14.520Z,11.69
2022-10-14T07:28:41.063Z,11.72
2022-10-14T07:31:09.749Z,11.53
2022-10-14T07:36:13.057Z,11.64
2022-10-14T07:38:41.398Z,11.76
2022-10-14T07:41:16.872Z,11.76
2022-10-14T07:43:45.607Z,11.89
2022-10-14T07:46:13.581Z,11.88
2022-10-14T07:48:57.566Z,12.00
2022-10-14T07:51:24.768Z,12.18
2022-10-14T07:53:52.960Z,12.40
2022-10-14T07:56:19.715Z,12.28
2022-10-14T07:58:46.569Z,12.58
2022-10-14T08:01:15.490Z,12.66
2022-10-14T08:03:43.579Z,12.56
2022-10-14T08:06:10.791Z,12.49
2022-10-14T08:08:37.390Z,12.58
2022-10-14T08:11:11.060Z,12.77
2022-10-14T08:13:41.888Z,12.85
2022-10-14T08:16:20.748Z,12.98
2022-10-14T08:18:47.393Z,13.06
2022-10-14T08:21:14.839Z,13.43
2022-10-14T08:23:41.269Z,12.82
2022-10-14T08:26:32.473Z,13.29
2022-10-14T08:29:01.240Z,13.16
2022-10-14T08:31:28.458Z,13.27
2022-10-14T08:33:54.986Z,13.35
2022-10-14T08:36:21.680Z,13.55
2022-10-14T08:38:51.847Z,13.54
2022-10-14T08:41:42.780Z,13.56
2022-10-14T08:44:15.190Z,13.63
2022-10-14T08:46:52.568Z,13.65
2022-10-14T08:49:46.035Z,13.76
2022-10-14T08:52:17.693Z,13.77
2022-10-14T08:54:52.152Z,13.79
2022-10-14T08:57:25.882Z,13.66
2022-10-14T08:59:52.326Z,13.88
2022-10-14T09:02:37.565Z,13.88
2022-10-14T09:05:04.498Z,13.85
2022-10-14T09:07:33.070Z,14.02
2022-10-14T09:10:07.724Z,13.96
2022-10-14T09:12:35.937Z,14.27
2022-10-14T09:15:16.816Z,14.53
2022-10-14T09:17:51.392Z,14.30
2022-10-14T09:20:25.475Z,14.63
2022-10-14T09:23:12.596Z,14.46
2022-10-14T09:25:43.536Z,14.24
2022-10-14T09:28:09.954Z,14.47
2022-10-14T09:30:40.476Z,14.41
2022-10-14T09:33:11.964Z,14.45
2022-10-14T09:35:43.099Z,14.27
2022-10-14T09:38:11.955Z,14.43
2022-10-14T09:40:43.416Z,14.61
2022-10-14T09:43:09.767Z,14.77
2022-10-14T09:45:57.006Z,14.81
2022-10-14T09:48:47.111Z,15.20
2022-10-14T09:51:24.605Z,14.82
2022-10-14T09:53:53.628Z,14.32
2022-10-14T09:56:58.052Z,13.93
2022-10-14T09:59:24.812Z,13.85
2022-10-14T10:02:05.399Z,14.30
2022-10-14T10:04:31.747Z,14.43
2022-10-14T10:07:01.439Z,14.14
2022-10-14T10:09:28.422Z,14.05
2022-10-14T10:11:55.218Z,14.50
2022-10-14T10:14:29.623Z,14.52
2022-10-14T10:17:08.409Z,14.18
2022-10-14T10:19:46.879Z,14.20
2022-10-14T10:22:22.517Z,14.55
2022-10-14T10:24:51.677Z,14.90
2022-10-14T10:27:25.414Z,15.40
2022-10-14T10:29:52.616Z,15.61
2022-10-14T10:32:38.823Z,15.54
2022-10-14T10:35:27.034Z,15.36
2022-10-14T10:38:09.903Z,15.64
2022-10-14T10:40:39.427Z,15.89
2022-10-14T10:43:05.792Z,15.64
2022-10-14T10:45:38.005Z,15.67
2022-10-14T10:48:23.751Z,15.31
2022-10-14T10:50:58.374Z,15.22
2022-10-14T10:53:49.849Z,15.00
2022-10-14T10:56:46.053Z,14.85
2022-10-14T10:59:49.325Z,14.81
2022-10-14T11:02:44.174Z,14.33
2022-10-14T11:05:32.233Z,14.37
2022-10-14T11:08:18.794Z,14.15
2022-10-14T11:11:16.620Z,13.83
2022-10-14T11:14:35.893Z,13.81
2022-10-14T11:17:11.639Z,13.81
2022-10-14T11:19:53.993Z,13.73
2022-10-14T11:22:50.936Z,13.75
2022-10-14T11:25:46.177Z,13.71
2022-10-14T11:28:31.317Z,13.89
2022-10-14T11:31:27.960Z,14.05
2022-10-14T11:34:03.433Z,13.93
2022-10-14T11:36:51.034Z,14.18
2022-10-14T11:39:24.711Z,13.84
2022-10-14T11:42:13.660Z,13.94
2022-10-14T11:44:44.363Z,14.19
2022-10-14T11:47:29.393Z,14.19
2022-10-14T11:50:12.871Z,14.29
2022-10-14T11:52:45.513Z,14.50
2022-10-14T11:55:19.268Z,14.68
2022-10-14T11:57:50.908Z,14.91
2022-10-14T12:00:54.974Z,15.27
2022-10-14T12:03:43.732Z,16.90
2022-10-14T12:06:20.865Z,17.24
2022-10-14T12:08:58.312Z,17.45
2022-10-14T12:11:34.223Z,16.25
2022-10-14T12:14:10.823Z,16.26
2022-10-14T12:16:41.186Z,15.78
2022-10-14T12:19:14.416Z,15.73
2022-10-14T12:21:50.845Z,15.91
2022-10-14T12:24:21.444Z,16.23
2022-10-14T12:27:05.667Z,16.28
2022-10-14T12:29:36.645Z,17.18
2022-10-14T12:32:03.017Z,16.35
2022-10-14T12:34:42.643Z,15.62
2022-10-14T12:37:31.637Z,15.14
2022-10-14T12:40:07.570Z,15.07
2022-10-14T12:42:38.088Z,15.59
2022-10-14T12:45:20.923Z,17.38
2022-10-14T12:47:57.732Z,19.50
2022-10-14T12:50:29.312Z,20.70
2022-10-14T12:52:59.009Z,21.10
2022-10-14T12:55:28.966Z,19.70
2022-10-14T12:57:59.307Z,18.03
2022-10-14T13:00:25.647Z,18.24
2022-10-14T13:02:56.104Z,18.80
2022-10-14T13:05:34.061Z,18.38
2022-10-14T13:08:15.513Z,18.22
2022-10-14T13:10:47.210Z,18.24
2022-10-14T13:13:42.094Z,18.85
2022-10-14T13:16:23.461Z,21.52
2022-10-14T13:18:57.863Z,21.60
2022-10-14T13:21:33.391Z,20.66
2022-10-14T13:24:02.874Z,20.12
2022-10-14T13:26:47.714Z,18.63
2022-10-14T13:29:20.309Z,18.02
2022-10-14T13:31:57.935Z,17.53
2022-10-14T13:34:30.495Z,16.74
2022-10-14T13:37:06.069Z,16.63
2022-10-14T13:39:34.620Z,16.37
2022-10-14T13:42:02.613Z,16.16
2022-10-14T13:44:29.481Z,16.50
2022-10-14T13:46:56.256Z,17.75
2022-10-14T13:49:39.230Z,18.60
2022-10-14T13:52:08.465Z,19.66
2022-10-14T13:54:34.893Z,19.98
2022-10-14T14:02:38.380Z,19.60
2022-10-14T14:05:05.356Z,18.96
2022-10-14T14:08:08.454Z,18.84
2022-10-14T14:10:24.865Z,18.26
2022-10-14T14:12:51.875Z,18.67
2022-10-14T14:15:27.135Z,18.87
2022-10-14T14:17:54.024Z,18.47
2022-10-14T14:20:23.733Z,18.29
2022-10-14T14:22:50.845Z,17.82
2022-10-14T14:25:38.371Z,17.06
2022-10-14T14:28:15.327Z,16.83
2022-10-14T14:30:54.632Z,16.42
2022-10-14T14:33:35.191Z,16.71
2022-10-14T14:36:04.467Z,18.14
2022-10-14T14:38:32.527Z,19.11
2022-10-14T14:41:06.737Z,19.33
2022-10-14T14:43:39.678Z,19.83
2022-10-14T14:46:18.438Z,18.88
2022-10-14T14:48:50.862Z,19.15
2022-10-14T14:51:21.412Z,19.60
2022-10-14T14:53:52.141Z,18.76
2022-10-14T14:56:26.316Z,18.43
2022-10-14T14:58:55.367Z,18.99
2022-10-14T15:01:26.572Z,19.53
2022-10-14T15:04:12.016Z,19.56
2022-10-14T15:07:01.466Z,19.31
2022-10-14T15:09:48.555Z,17.48
2022-10-14T15:12:24.508Z,16.83
2022-10-14T15:14:53.661Z,16.68
2022-10-14T15:17:38.166Z,16.58
2022-10-14T15:20:04.650Z,16.45
2022-10-14T15:22:34.639Z,16.03
2022-10-14T15:25:11.904Z,15.91
2022-10-14T15:27:45.784Z,15.34
2022-10-14T15:30:18.367Z,15.32
2022-10-14T15:32:44.909Z,15.68
2022-10-14T15:35:16.771Z,16.27
2022-10-14T15:37:43.284Z,16.54
2022-10-14T15:40:23.699Z,15.62
2022-10-14T15:42:50.704Z,15.08
2022-10-14T15:45:18.892Z,14.86
2022-10-14T15:47:46.089Z,14.62
2022-10-14T15:50:18.823Z,14.53
2022-10-14T15:52:45.391Z,14.41
2022-10-14T15:55:19.542Z,14.19
2022-10-14T15:57:47.511Z,13.92
2022-10-14T16:00:14.337Z,13.77
2022-10-14T16:02:43.418Z,13.57
2022-10-14T16:05:25.901Z,13.41
2022-10-14T16:07:52.330Z,13.23
2022-10-14T16:10:21.596Z,13.00
2022-10-14T16:12:48.982Z,12.86
2022-10-14T16:15:34.137Z,12.78
2022-10-14T16:18:00.591Z,12.77
2022-10-14T16:20:27.396Z,12.76
2022-10-14T16:22:54.168Z,12.62
2022-10-14T16:25:34.330Z,12.67
2022-10-14T16:28:01.098Z,12.64
2022-10-14T16:30:28.043Z,12.71
2022-10-14T16:32:55.357Z,12.49
2022-10-14T16:35:21.813Z,12.48
2022-10-14T16:37:48.894Z,12.53
2022-10-14T16:40:15.459Z,12.49
2022-10-14T16:42:41.892Z,12.47
2022-10-14T16:45:08.635Z,12.40
2022-10-14T16:47:35.042Z,12.37
2022-10-14T16:50:01.536Z,12.48
2022-10-14T16:52:28.001Z,12.43
2022-10-14T16:54:54.438Z,12.37
2022-10-14T16:57:21.204Z,12.50
2022-10-14T16:59:47.648Z,12.46
2022-10-14T17:02:15.967Z,12.53
2022-10-14T17:04:43.181Z,12.36
2022-10-14T17:07:09.707Z,12.42
2022-10-14T17:09:36.630Z,12.39
2022-10-14T17:12:08.122Z,12.29
2022-10-14T17:14:37.653Z,12.40
2022-10-14T17:17:04.599Z,12.33
2022-10-14T17:19:31.155Z,12.26
2022-10-14T17:21:57.674Z,12.28
2022-10-14T17:24:24.171Z,12.39
2022-10-14T17:26:50.657Z,12.37
2022-10-14T17:29:17.139Z,12.53
2022-10-14T17:31:44.201Z,12.54
2022-10-14T17:34:10.783Z,12.31
2022-10-14T17:36:37.606Z,12.37
2022-10-14T17:39:04.659Z,12.39
2022-10-14T17:41:31.123Z,12.47
2022-10-14T17:44:00.231Z,12.40
2022-10-14T17:46:29.411Z,12.43
2022-10-14T17:48:58.698Z,12.41
2022-10-14T17:51:26.710Z,12.48
2022-10-14T17:53:58.265Z,12.46
2022-10-14T17:56:26.758Z,12.52
2022-10-14T17:58:58.754Z,12.55
2022-10-14T18:01:37.070Z,12.59
2022-10-14T18:04:10.489Z,12.47
2022-10-14T18:06:37.398Z,12.65
2022-10-14T18:09:06.589Z,12.57
2022-10-14T18:12:10.592Z,12.49
2022-10-14T18:14:28.355Z,12.45
2022-10-14T18:16:54.784Z,12.50
2022-10-14T18:19:21.183Z,12.51
2022-10-14T18:21:48.004Z,12.48
2022-10-14T18:24:14.472Z,12.53
2022-10-14T18:26:41.151Z,12.59
2022-10-14T18:29:08.549Z,12.49
2022-10-14T18:31:35.431Z,12.52
2022-10-14T18:34:02.142Z,12.62
2022-10-14T18:36:32.883Z,12.67
2022-10-14T18:39:02.556Z,12.60
2022-10-14T18:41:30.298Z,12.66
2022-10-14T18:43:59.544Z,12.77
2022-10-14T18:46:28.692Z,12.69
2022-10-14T18:48:56.723Z,12.63
2022-10-14T18:51:25.834Z,12.67
2022-10-14T18:53:55.970Z,12.59
2022-10-14T18:56:25.549Z,12.54
2022-10-14T18:58:56.736Z,12.60
2022-10-14T19:01:24.244Z,12.54
2022-10-14T19:03:51.252Z,12.57
2022-10-14T19:06:20.426Z,12.56
2022-10-14T19:08:47.467Z,12.68
2022-10-14T19:11:18.016Z,12.71
2022-10-14T19:13:45.349Z,12.68
2022-10-14T19:16:17.695Z,12.66
2022-10-14T19:18:44.895Z,12.61
2022-10-14T19:21:14.716Z,12.82
2022-10-14T19:23:43.440Z,12.73
2022-10-14T19:26:13.218Z,12.68
2022-10-14T19:28:39.969Z,12.66
2022-10-14T19:31:12.025Z,12.85
2022-10-14T19:33:40.263Z,12.85
2022-10-14T19:36:07.507Z,12.89
2022-10-14T19:38:35.247Z,12.76
2022-10-14T19:41:02.810Z,12.78
2022-10-14T19:43:30.122Z,12.91
2022-10-14T19:45:56.689Z,12.95
2022-10-14T19:48:23.152Z,12.80
2022-10-14T19:50:49.645Z,12.81
2022-10-14T19:53:16.073Z,12.83
2022-10-14T19:55:42.707Z,12.71
2022-10-14T19:58:09.331Z,12.47
2022-10-14T20:00:36.293Z,12.27
2022-10-14T20:03:02.749Z,12.26
2022-10-14T20:05:29.168Z,12.35
2022-10-14T20:07:57.250Z,12.31
2022-10-14T20:10:23.995Z,12.31
2022-10-14T20:12:50.415Z,12.47
2022-10-14T20:15:16.877Z,12.48
2022-10-14T20:17:43.297Z,12.50
2022-10-14T20:20:10.098Z,12.53
2022-10-14T20:22:36.549Z,12.59
2022-10-14T20:25:03.608Z,12.64
2022-10-14T20:27:30.007Z,12.59
2022-10-14T20:29:56.388Z,12.61
2022-10-14T20:32:22.856Z,12.63
2022-10-14T20:34:49.367Z,12.53
2022-10-14T20:37:15.876Z,12.46
2022-10-14T20:39:42.336Z,12.37
2022-10-14T20:42:08.741Z,12.32
2022-10-14T20:44:35.233Z,12.23
2022-10-14T20:47:01.655Z,12.17
2022-10-14T20:49:28.066Z,12.11
2022-10-14T20:51:54.466Z,12.09
2022-10-14T20:54:21.008Z,12.09
2022-10-14T20:56:49.139Z,12.13
2022-10-14T20:59:15.698Z,12.13
2022-10-14T21:01:42.250Z,12.03
2022-10-14T21:04:08.712Z,12.03
2022-10-14T21:06:35.764Z,12.10
2022-10-14T21:09:02.416Z,12.10
2022-10-14T21:11:28.920Z,12.05
2022-10-14T21:13:57.755Z,12.05
2022-10-14T21:16:30.283Z,12.08
2022-10-14T21:19:02.932Z,12.15
2022-10-14T21:21:33.801Z,12.09
2022-10-14T21:24:00.267Z,12.01
2022-10-14T21:26:26.806Z,12.04
2022-10-14T21:28:53.338Z,12.06
2022-10-14T21:31:20.320Z,12.03
2022-10-14T21:33:47.648Z,12.04
2022-10-14T21:36:16.203Z,12.17
2022-10-14T21:38:42.701Z,12.21
2022-10-14T21:41:09.298Z,12.28
2022-10-14T21:43:37.908Z,12.24
2022-10-14T21:46:13.086Z,12.29
2022-10-14T21:48:41.026Z,12.19
2022-10-14T21:51:13.325Z,12.18
2022-10-14T21:53:41.569Z,12.25
2022-10-14T21:56:10.003Z,12.27
2022-10-14T21:58:36.601Z,12.18
2022-10-14T22:01:10.055Z,12.25
2022-10-14T22:03:37.822Z,12.23
2022-10-14T22:06:15.933Z,12.21
2022-10-14T22:08:45.315Z,12.20
2022-10-14T22:11:18.300Z,12.21
2022-10-14T22:13:44.790Z,12.31
2022-10-14T22:16:13.407Z,12.30
2022-10-14T22:18:44.982Z,12.42
2022-10-14T22:21:11.412Z,12.40
2022-10-14T22:23:40.142Z,12.31
2022-10-14T22:26:08.841Z,12.40
2022-10-14T22:28:35.641Z,12.37
2022-10-14T22:31:13.942Z,12.36
2022-10-14T22:33:40.844Z,12.36
2022-10-14T22:36:12.919Z,12.50
2022-10-14T22:38:41.726Z,12.56
2022-10-14T22:41:09.951Z,12.52
2022-10-14T22:43:37.026Z,12.50
2022-10-14T22:46:06.380Z,12.46
2022-10-14T22:48:33.355Z,12.51
2022-10-14T22:51:11.133Z,12.43
2022-10-14T22:53:38.921Z,12.41
2022-10-14T22:56:06.966Z,12.42
2022-10-14T22:58:33.487Z,12.42
2022-10-14T23:01:14.368Z,12.45
2022-10-14T23:03:41.792Z,12.54
2022-10-14T23:06:12.046Z,12.48
2022-10-14T23:08:38.796Z,12.50
2022-10-14T23:11:06.036Z,12.58
2022-10-14T23:13:33.138Z,12.53
2022-10-14T23:16:02.218Z,12.56
2022-10-14T23:18:30.299Z,12.65
2022-10-14T23:20:56.935Z,12.52
2022-10-14T23:23:23.549Z,12.48
2022-10-14T23:25:50.013Z,12.48
2022-10-14T23:28:16.532Z,12.51
2022-10-14T23:30:43.007Z,12.54
2022-10-14T23:33:11.782Z,12.55
2022-10-14T23:35:38.939Z,12.49
2022-10-14T23:38:05.398Z,12.52
2022-10-14T23:40:31.855Z,12.53
2022-10-14T23:42:58.331Z,12.65
2022-10-14T23:45:24.793Z,12.58
2022-10-14T23:47:51.195Z,12.54
2022-10-14T23:50:17.853Z,12.58
2022-10-14T23:52:45.779Z,12.57
2022-10-14T23:55:13.002Z,12.71
2022-10-14T23:57:40.239Z,12.61
